Time;durP1;ratioP1;P1;durP2;ratioP2;P2;SDS_P1;SDS_P2;PMS_P1;PMS_P2;Temp;Humidity;BMP_temperature;BMP_pressure;BME280_temperature;BME280_humidity;BME280_pressure;Samples;Min_cycle;Max_cycle;Signal;HPM_P1;HPM_P2
2022/04/23 00:01:39;;;;;;;0.17;0.17;;;;;;;;;;5092947;28;20104;-79
2022/04/23 00:04:06;;;;;;;0.00;0.00;;;;;;;;;;5075355;28;20024;-79
2022/04/23 00:06:32;;;;;;;0.00;0.00;;;;;;;;;;5073242;28;20025;-78
2022/04/23 00:08:58;;;;;;;0.00;0.00;;;;;;;;;;5077429;28;20479;-78
2022/04/23 00:11:25;;;;;;;0.00;0.00;;;;;;;;;;5077365;28;20505;-78
2022/04/23 00:13:51;;;;;;;0.00;0.00;;;;;;;;;;5067696;28;20032;-78
2022/04/23 00:16:17;;;;;;;0.00;0.00;;;;;;;;;;5105997;28;20040;-78
2022/04/23 00:18:44;;;;;;;0.00;0.00;;;;;;;;;;5095165;28;20178;-79
2022/04/23 00:21:13;;;;;;;0.00;0.00;;;;;;;;;;5088508;28;20047;-78
2022/04/23 00:23:40;;;;;;;0.00;0.00;;;;;;;;;;5108794;28;20470;-79
2022/04/23 00:26:06;;;;;;;0.00;0.00;;;;;;;;;;5096460;28;20039;-78
2022/04/23 00:28:33;;;;;;;0.00;0.00;;;;;;;;;;5100979;28;21805;-78
2022/04/23 00:31:00;;;;;;;0.00;0.00;;;;;;;;;;5099486;28;20114;-79
2022/04/23 00:33:27;;;;;;;0.00;0.00;;;;;;;;;;5079945;28;20028;-79
2022/04/23 00:35:53;;;;;;;0.00;0.00;;;;;;;;;;5083830;28;20099;-79
2022/04/23 00:38:20;;;;;;;0.00;0.00;;;;;;;;;;5109500;28;20037;-79
2022/04/23 00:40:46;;;;;;;0.00;0.00;;;;;;;;;;5090138;28;20039;-79
2022/04/23 00:43:29;;;;;;;0.00;0.00;;;;;;;;;;5080204;28;20019;-79
2022/04/23 00:45:56;;;;;;;0.00;0.00;;;;;;;;;;5111172;28;20615;-79
2022/04/23 00:48:24;;;;;;;0.00;0.00;;;;;;;;;;5113323;28;20055;-79
2022/04/23 00:50:54;;;;;;;0.00;0.00;;;;;;;;;;5106381;28;20028;-79
2022/04/23 00:53:23;;;;;;;0.00;0.00;;;;;;;;;;5105434;28;20391;-79
2022/04/23 00:55:52;;;;;;;0.00;0.00;;;;;;;;;;5096508;28;20020;-79
2022/04/23 00:58:19;;;;;;;0.00;0.00;;;;;;;;;;5102389;28;20024;-79
2022/04/23 01:00:46;;;;;;;0.03;0.03;;;;;;;;;;5079736;28;20031;-79
2022/04/23 01:03:13;;;;;;;0.00;0.00;;;;;;;;;;5077495;28;20086;-79
2022/04/23 01:05:47;;;;;;;0.00;0.00;;;;;;;;;;5084993;28;20028;-79
2022/04/23 01:08:15;;;;;;;0.00;0.00;;;;;;;;;;5122233;28;20110;-78
2022/04/23 01:10:45;;;;;;;0.00;0.00;;;;;;;;;;5109882;28;20408;-79
2022/04/23 01:13:14;;;;;;;0.00;0.00;;;;;;;;;;5080122;28;20028;-79
2022/04/23 01:16:02;;;;;;;0.00;0.00;;;;;;;;;;5097677;28;20032;-79
2022/04/23 01:18:28;;;;;;;0.00;0.00;;;;;;;;;;5090335;28;20024;-80
2022/04/23 01:20:59;;;;;;;1.10;1.10;;;;;;;;;;5097023;28;20097;-80
2022/04/23 01:23:25;;;;;;;0.00;0.00;;;;;;;;;;5093750;28;20032;-80
2022/04/23 01:25:55;;;;;;;0.00;0.00;;;;;;;;;;5089662;28;20352;-80
2022/04/23 01:28:22;;;;;;;0.00;0.00;;;;;;;;;;5108793;28;20110;-79
2022/04/23 01:30:49;;;;;;;0.05;0.05;;;;;;;;;;5105664;28;20028;-79
2022/04/23 01:33:15;;;;;;;0.00;0.00;;;;;;;;;;5097633;28;20220;-79
2022/04/23 01:35:42;;;;;;;1.23;1.23;;;;;;;;;;5101091;28;20026;-79
2022/04/23 01:38:09;;;;;;;0.00;0.00;;;;;;;;;;5088640;28;20412;-79
2022/04/23 01:40:35;;;;;;;0.00;0.00;;;;;;;;;;5115003;28;20100;-80
2022/04/23 01:43:02;;;;;;;0.00;0.00;;;;;;;;;;5100130;28;20067;-81
2022/04/23 01:45:28;;;;;;;0.00;0.00;;;;;;;;;;5082131;28;20024;-80
2022/04/23 01:47:54;;;;;;;0.00;0.00;;;;;;;;;;5105193;28;20413;-80
2022/04/23 01:50:21;;;;;;;0.00;0.00;;;;;;;;;;5097900;28;20070;-81
2022/04/23 01:52:47;;;;;;;0.00;0.00;;;;;;;;;;5114564;28;20016;-80
2022/04/23 01:55:14;;;;;;;1.45;0.75;;;;;;;;;;5111424;28;20059;-80
2022/04/23 01:57:41;;;;;;;0.00;0.00;;;;;;;;;;5083991;28;20077;-80
2022/04/23 02:00:08;;;;;;;0.00;0.00;;;;;;;;;;5099406;28;20077;-80
2022/04/23 02:02:36;;;;;;;0.00;0.00;;;;;;;;;;5101940;28;20126;-80
2022/04/23 02:05:04;;;;;;;0.00;0.00;;;;;;;;;;5112572;28;20031;-81
2022/04/23 02:07:33;;;;;;;0.25;0.25;;;;;;;;;;5098014;28;20046;-80
2022/04/23 02:09:59;;;;;;;0.00;0.00;;;;;;;;;;5109553;28;20386;-80
2022/04/23 02:12:26;;;;;;;0.00;0.00;;;;;;;;;;5116311;28;20099;-81
2022/04/23 02:14:52;;;;;;;3.47;3.08;;;;;;;;;;5104189;28;20040;-79
2022/04/23 02:17:19;;;;;;;1.55;0.70;;;;;;;;;;5100798;28;20024;-79
2022/04/23 02:19:45;;;;;;;0.00;0.00;;;;;;;;;;5095425;28;20036;-79
2022/04/23 02:22:12;;;;;;;0.00;0.00;;;;;;;;;;5101708;28;20047;-79
2022/04/23 02:24:40;;;;;;;2.95;2.78;;;;;;;;;;5114402;28;20047;-80
2022/04/23 02:27:07;;;;;;;0.00;0.00;;;;;;;;;;5115928;28;20506;-80
2022/04/23 02:29:33;;;;;;;0.00;0.00;;;;;;;;;;5099313;28;20055;-80
2022/04/23 02:32:03;;;;;;;2.63;1.85;;;;;;;;;;5095345;28;20028;-81
2022/04/23 02:34:29;;;;;;;0.35;0.35;;;;;;;;;;5077917;28;21344;-80
2022/04/23 02:36:56;;;;;;;0.00;0.00;;;;;;;;;;5094751;28;20119;-79
2022/04/23 02:39:28;;;;;;;1.65;1.00;;;;;;;;;;5104597;28;20027;-80
2022/04/23 02:41:54;;;;;;;0.00;0.00;;;;;;;;;;5076119;28;20065;-80
2022/04/23 02:44:20;;;;;;;0.00;0.00;;;;;;;;;;5098958;28;20036;-81
2022/04/23 02:46:49;;;;;;;0.00;0.00;;;;;;;;;;5095138;28;20047;-81
2022/04/23 02:49:19;;;;;;;0.00;0.00;;;;;;;;;;5096913;28;20099;-81
2022/04/23 02:51:45;;;;;;;0.20;0.20;;;;;;;;;;5095258;28;20096;-81
2022/04/23 02:54:13;;;;;;;0.00;0.00;;;;;;;;;;5097191;28;20470;-80
2022/04/23 02:56:39;;;;;;;0.00;0.00;;;;;;;;;;5098398;28;20062;-81
2022/04/23 02:59:06;;;;;;;0.10;0.10;;;;;;;;;;5102268;28;20048;-80
2022/04/23 03:01:36;;;;;;;0.40;0.40;;;;;;;;;;5085454;28;20028;-80
2022/04/23 03:04:08;;;;;;;0.00;0.00;;;;;;;;;;5099082;28;20024;-80
2022/04/23 03:06:41;;;;;;;0.30;0.30;;;;;;;;;;5089311;28;20238;-80
2022/04/23 03:09:07;;;;;;;0.00;0.00;;;;;;;;;;5091930;28;20122;-80
2022/04/23 03:11:33;;;;;;;0.00;0.00;;;;;;;;;;5083597;28;20027;-80
2022/04/23 03:14:00;;;;;;;1.45;0.98;;;;;;;;;;5099418;28;20111;-80
2022/04/23 03:16:26;;;;;;;0.40;0.40;;;;;;;;;;5078735;28;20062;-80
2022/04/23 03:18:53;;;;;;;0.00;0.00;;;;;;;;;;5113360;28;20068;-80
2022/04/23 03:21:20;;;;;;;0.70;0.70;;;;;;;;;;5098243;28;20032;-81
2022/04/23 03:23:46;;;;;;;0.00;0.00;;;;;;;;;;5097533;28;20055;-80
2022/04/23 03:26:13;;;;;;;1.58;0.38;;;;;;;;;;5081470;28;20051;-80
2022/04/23 03:28:59;;;;;;;0.00;0.00;;;;;;;;;;5079645;28;20042;-82
2022/04/23 03:31:26;;;;;;;0.00;0.00;;;;;;;;;;5087497;28;20093;-81
2022/04/23 03:33:52;;;;;;;0.00;0.00;;;;;;;;;;5080347;28;20120;-81
2022/04/23 03:36:18;;;;;;;0.17;0.17;;;;;;;;;;5109732;28;20026;-81
2022/04/23 03:38:45;;;;;;;0.00;0.00;;;;;;;;;;5093653;28;20446;-81
2022/04/23 03:41:11;;;;;;;0.08;0.08;;;;;;;;;;5098486;28;20024;-80
2022/04/23 03:43:38;;;;;;;0.10;0.10;;;;;;;;;;5111276;28;20106;-80
2022/04/23 03:46:04;;;;;;;0.43;0.43;;;;;;;;;;5099929;28;20052;-80
2022/04/23 03:48:30;;;;;;;0.10;0.10;;;;;;;;;;5098252;28;20410;-80
2022/04/23 03:50:57;;;;;;;0.00;0.00;;;;;;;;;;5093376;28;20113;-80
2022/04/23 03:53:23;;;;;;;0.00;0.00;;;;;;;;;;5100015;28;20020;-80
2022/04/23 03:55:49;;;;;;;3.92;1.98;;;;;;;;;;5106965;28;20064;-81
2022/04/23 03:58:16;;;;;;;0.03;0.03;;;;;;;;;;5105536;28;20016;-80
2022/04/23 04:00:42;;;;;;;0.63;0.63;;;;;;;;;;5091563;28;20020;-79
2022/04/23 04:03:09;;;;;;;0.00;0.00;;;;;;;;;;5102412;28;20107;-79
2022/04/23 04:05:35;;;;;;;0.00;0.00;;;;;;;;;;5094833;28;20045;-78
2022/04/23 04:08:02;;;;;;;2.00;0.80;;;;;;;;;;5118734;28;20077;-79
2022/04/23 04:10:28;;;;;;;0.00;0.00;;;;;;;;;;5100312;28;20023;-78
2022/04/23 04:12:57;;;;;;;1.95;1.75;;;;;;;;;;5121199;28;20069;-79
2022/04/23 04:15:24;;;;;;;0.47;0.45;;;;;;;;;;5111613;28;20036;-78
2022/04/23 04:17:51;;;;;;;0.15;0.10;;;;;;;;;;5127765;28;20099;-79
2022/04/23 04:20:17;;;;;;;0.52;0.52;;;;;;;;;;5123767;28;20059;-80
2022/04/23 04:22:45;;;;;;;0.77;0.77;;;;;;;;;;5102341;28;20023;-80
2022/04/23 04:25:14;;;;;;;0.10;0.10;;;;;;;;;;5103313;28;20031;-80
2022/04/23 04:27:41;;;;;;;0.60;0.60;;;;;;;;;;5101290;28;20529;-80
2022/04/23 04:30:08;;;;;;;0.25;0.10;;;;;;;;;;5101197;28;20027;-78
2022/04/23 04:32:35;;;;;;;0.20;0.20;;;;;;;;;;5104397;28;20482;-80
2022/04/23 04:35:01;;;;;;;0.00;0.00;;;;;;;;;;5099755;28;20109;-78
2022/04/23 04:37:28;;;;;;;0.65;0.65;;;;;;;;;;5068441;28;20028;-79
2022/04/23 04:39:54;;;;;;;1.25;0.65;;;;;;;;;;5103269;28;20028;-80
2022/04/23 04:42:21;;;;;;;11.65;2.47;;;;;;;;;;5085815;28;20027;-79
2022/04/23 04:44:49;;;;;;;0.00;0.00;;;;;;;;;;5099238;28;20024;-79
2022/04/23 04:47:17;;;;;;;5.10;0.55;;;;;;;;;;5102032;28;20471;-79
2022/04/23 04:49:44;;;;;;;1.95;0.93;;;;;;;;;;5083592;28;20046;-79
2022/04/23 04:52:11;;;;;;;3.60;1.40;;;;;;;;;;5081018;28;20318;-79
2022/04/23 04:54:37;;;;;;;3.92;2.50;;;;;;;;;;5100157;28;20020;-82
2022/04/23 04:57:04;;;;;;;0.75;0.57;;;;;;;;;;5096119;28;20016;-80
2022/04/23 04:59:34;;;;;;;0.00;0.00;;;;;;;;;;5098199;28;20052;-80
2022/04/23 05:02:01;;;;;;;0.85;0.85;;;;;;;;;;5090059;28;20024;-79
2022/04/23 05:04:28;;;;;;;0.88;0.75;;;;;;;;;;5094817;28;20019;-80
2022/04/23 05:06:54;;;;;;;0.52;0.52;;;;;;;;;;5104224;28;20556;-80
2022/04/23 05:09:21;;;;;;;0.45;0.32;;;;;;;;;;5079766;28;20441;-80
2022/04/23 05:11:47;;;;;;;2.00;1.45;;;;;;;;;;5092935;28;20024;-80
2022/04/23 05:14:20;;;;;;;0.40;0.40;;;;;;;;;;5076127;28;20024;-81
2022/04/23 05:16:46;;;;;;;1.00;0.85;;;;;;;;;;5074467;28;20027;-79
2022/04/23 05:19:13;;;;;;;1.55;0.68;;;;;;;;;;5099197;28;20048;-81
2022/04/23 05:21:39;;;;;;;17.75;2.03;;;;;;;;;;5087558;28;20062;-80
2022/04/23 05:24:06;;;;;;;3.25;1.70;;;;;;;;;;5098010;28;20032;-80
2022/04/23 05:26:35;;;;;;;5.22;1.15;;;;;;;;;;5097730;28;20027;-80
2022/04/23 05:29:07;;;;;;;0.40;0.30;;;;;;;;;;5100115;28;20619;-81
2022/04/23 05:31:34;;;;;;;2.58;1.38;;;;;;;;;;5081979;28;20066;-81
2022/04/23 05:34:00;;;;;;;1.13;0.98;;;;;;;;;;5082299;28;20069;-81
2022/04/23 05:36:27;;;;;;;3.13;2.00;;;;;;;;;;5095951;28;20371;-80
2022/04/23 05:38:55;;;;;;;0.47;0.47;;;;;;;;;;5083541;28;20107;-81
2022/04/23 05:41:21;;;;;;;0.95;0.73;;;;;;;;;;5080564;28;20050;-81
2022/04/23 05:43:47;;;;;;;5.40;5.18;;;;;;;;;;5101869;28;20036;-81
2022/04/23 05:46:16;;;;;;;5.68;2.65;;;;;;;;;;5082125;28;20038;-81
2022/04/23 05:48:43;;;;;;;0.32;0.20;;;;;;;;;;5093020;28;20029;-81
2022/04/23 05:51:09;;;;;;;5.78;2.28;;;;;;;;;;5095525;28;20024;-81
2022/04/23 05:53:38;;;;;;;0.20;0.20;;;;;;;;;;5088567;28;20371;-81
2022/04/23 05:56:04;;;;;;;3.83;2.00;;;;;;;;;;5098855;28;20023;-81
2022/04/23 05:58:31;;;;;;;5.07;0.45;;;;;;;;;;5098271;28;20119;-81
2022/04/23 06:00:57;;;;;;;3.70;2.00;;;;;;;;;;5097064;28;20056;-81
2022/04/23 06:03:24;;;;;;;0.85;0.57;;;;;;;;;;5087014;28;20028;-80
2022/04/23 06:05:50;;;;;;;3.17;1.85;;;;;;;;;;5079122;28;20114;-80
2022/04/23 06:08:17;;;;;;;3.72;0.98;;;;;;;;;;5100431;28;20947;-80
2022/04/23 06:10:43;;;;;;;5.20;1.58;;;;;;;;;;5083467;28;20474;-79
2022/04/23 06:13:10;;;;;;;1.92;0.90;;;;;;;;;;5118496;28;20588;-78
2022/04/23 06:15:37;;;;;;;4.68;2.72;;;;;;;;;;5100213;28;20064;-80
2022/04/23 06:18:03;;;;;;;0.52;0.43;;;;;;;;;;5100048;28;20016;-81
2022/04/23 06:20:29;;;;;;;0.10;0.10;;;;;;;;;;5087542;28;20543;-81
2022/04/23 06:22:56;;;;;;;1.98;1.80;;;;;;;;;;5105396;28;20028;-82
2022/04/23 06:25:22;;;;;;;1.25;1.15;;;;;;;;;;5103048;28;20020;-81
2022/04/23 06:27:50;;;;;;;4.85;4.60;;;;;;;;;;5083516;28;20035;-80
2022/04/23 06:30:16;;;;;;;0.45;0.45;;;;;;;;;;5104888;28;20028;-80
2022/04/23 06:32:43;;;;;;;35.83;12.45;;;;;;;;;;5081552;28;20116;-81
2022/04/23 06:35:10;;;;;;;0.30;0.30;;;;;;;;;;5102615;28;20359;-80
2022/04/23 06:37:41;;;;;;;1.25;0.30;;;;;;;;;;5091968;28;20111;-81
2022/04/23 06:40:08;;;;;;;2.40;1.65;;;;;;;;;;5114592;28;20061;-81
2022/04/23 06:42:34;;;;;;;5.35;3.22;;;;;;;;;;5102128;28;20104;-81
2022/04/23 06:45:01;;;;;;;1.55;1.13;;;;;;;;;;5086784;28;20032;-81
2022/04/23 06:47:27;;;;;;;0.08;0.08;;;;;;;;;;5104316;28;20028;-81
2022/04/23 06:49:57;;;;;;;0.00;0.00;;;;;;;;;;5094066;28;20031;-80
2022/04/23 06:52:23;;;;;;;2.20;1.35;;;;;;;;;;5104276;28;20051;-81
2022/04/23 06:54:53;;;;;;;0.25;0.25;;;;;;;;;;5107689;28;20016;-80
2022/04/23 06:57:20;;;;;;;0.10;0.00;;;;;;;;;;5099456;28;20027;-81
2022/04/23 06:59:46;;;;;;;3.00;1.10;;;;;;;;;;5086896;28;20066;-81
2022/04/23 07:02:12;;;;;;;3.00;2.75;;;;;;;;;;5083850;28;20058;-81
2022/04/23 07:04:39;;;;;;;1.02;1.00;;;;;;;;;;5097328;28;20101;-81
2022/04/23 07:07:05;;;;;;;0.17;0.17;;;;;;;;;;5111082;28;20024;-81
2022/04/23 07:09:32;;;;;;;1.75;0.70;;;;;;;;;;5110210;28;20087;-81
2022/04/23 07:11:58;;;;;;;4.95;1.98;;;;;;;;;;5104735;28;20270;-81
2022/04/23 07:14:30;;;;;;;0.52;0.52;;;;;;;;;;5108335;28;20067;-81
2022/04/23 07:16:57;;;;;;;0.32;0.32;;;;;;;;;;5107094;28;20020;-80
2022/04/23 07:19:23;;;;;;;7.40;2.85;;;;;;;;;;5100464;28;20031;-81
2022/04/23 07:21:50;;;;;;;1.90;1.80;;;;;;;;;;5101039;28;20077;-81
2022/04/23 07:24:19;;;;;;;1.20;1.10;;;;;;;;;;5098577;28;20099;-81
2022/04/23 07:26:46;;;;;;;2.53;2.33;;;;;;;;;;5106401;28;20107;-81
2022/04/23 07:29:13;;;;;;;3.05;0.73;;;;;;;;;;5091672;28;20492;-81
2022/04/23 07:31:39;;;;;;;2.38;1.75;;;;;;;;;;5090781;28;20027;-82
2022/04/23 07:39:36;;;;;;;2.10;1.08;;;;;;;;;;5103543;28;20041;-81
2022/04/23 07:42:03;;;;;;;1.13;1.08;;;;;;;;;;5082995;28;20386;-81
2022/04/23 07:44:29;;;;;;;3.83;2.05;;;;;;;;;;5102727;28;20606;-81
2022/04/23 07:46:56;;;;;;;3.13;1.52;;;;;;;;;;5082178;28;20036;-81
2022/04/23 07:49:22;;;;;;;0.40;0.28;;;;;;;;;;5083548;28;20127;-81
2022/04/23 07:51:50;;;;;;;7.43;4.20;;;;;;;;;;5099325;28;20078;-82
2022/04/23 07:54:19;;;;;;;1.10;0.77;;;;;;;;;;5080889;28;20020;-81
2022/04/23 07:56:45;;;;;;;0.00;0.00;;;;;;;;;;5100136;28;20039;-81
2022/04/23 07:59:12;;;;;;;0.00;0.00;;;;;;;;;;5111496;28;20394;-82
2022/04/23 08:01:41;;;;;;;2.28;2.17;;;;;;;;;;5078741;28;20425;-82
2022/04/23 08:04:07;;;;;;;1.02;0.82;;;;;;;;;;5083282;28;20114;-82
2022/04/23 08:06:34;;;;;;;0.35;0.32;;;;;;;;;;5102974;28;20054;-81
2022/04/23 08:09:00;;;;;;;7.30;4.93;;;;;;;;;;5105816;28;20030;-81
2022/04/23 08:11:27;;;;;;;3.35;1.73;;;;;;;;;;5085869;28;20038;-81
2022/04/23 08:13:53;;;;;;;1.88;1.45;;;;;;;;;;5100671;28;20020;-82
2022/04/23 08:16:20;;;;;;;2.65;1.58;;;;;;;;;;5080789;28;20044;-82
2022/04/23 08:18:49;;;;;;;0.00;0.00;;;;;;;;;;5079851;28;20107;-80
2022/04/23 08:21:15;;;;;;;0.85;0.85;;;;;;;;;;5075117;28;20024;-81
2022/04/23 08:23:42;;;;;;;0.45;0.15;;;;;;;;;;5078719;28;20024;-81
2022/04/23 08:26:09;;;;;;;1.13;0.80;;;;;;;;;;5078843;28;20020;-81
2022/04/23 08:31:21;;;;;;;0.70;0.35;;;;;;;;;;5084376;28;20119;-80
2022/04/23 08:33:58;;;;;;;8.90;2.80;;;;;;;;;;5073983;28;20475;-81
2022/04/23 08:36:35;;;;;;;0.60;0.17;;;;;;;;;;5080444;28;20068;-81
2022/04/23 08:39:02;;;;;;;3.13;1.58;;;;;;;;;;5078124;28;20047;-81
2022/04/23 08:41:29;;;;;;;4.07;2.53;;;;;;;;;;5080351;28;20083;-81
2022/04/23 08:44:03;;;;;;;0.50;0.40;;;;;;;;;;5083191;28;20025;-81
2022/04/23 08:46:33;;;;;;;0.52;0.52;;;;;;;;;;5083175;28;20052;-81
2022/04/23 08:49:18;;;;;;;2.78;2.00;;;;;;;;;;5076411;28;20019;-81
2022/04/23 08:51:48;;;;;;;3.90;0.85;;;;;;;;;;5088031;28;20019;-81
2022/04/23 08:54:15;;;;;;;5.03;2.60;;;;;;;;;;5092789;28;20042;-81
2022/04/23 08:56:43;;;;;;;8.70;3.90;;;;;;;;;;5076680;28;20031;-80
2022/04/23 08:59:11;;;;;;;0.47;0.47;;;;;;;;;;5079757;28;20051;-82
2022/04/23 09:01:38;;;;;;;22.83;13.48;;;;;;;;;;5078819;28;20435;-80
2022/04/23 09:04:06;;;;;;;2.72;1.70;;;;;;;;;;5087085;28;20024;-82
2022/04/23 09:06:36;;;;;;;0.03;0.03;;;;;;;;;;5090352;28;20035;-81
2022/04/23 09:09:13;;;;;;;20.15;2.75;;;;;;;;;;5082964;28;20074;-81
2022/04/23 09:11:40;;;;;;;7.93;3.05;;;;;;;;;;5078270;28;20025;-81
2022/04/23 09:14:08;;;;;;;6.35;3.63;;;;;;;;;;5075484;28;20102;-81
2022/04/23 09:25:06;;;;;;;1.20;1.20;;;;;;;;;;5079786;28;20035;-81
2022/04/23 09:27:36;;;;;;;3.85;1.13;;;;;;;;;;5082115;28;20058;-80
2022/04/23 09:30:04;;;;;;;3.33;2.15;;;;;;;;;;5082562;28;20032;-81
2022/04/23 09:32:31;;;;;;;7.93;6.68;;;;;;;;;;5082964;28;20028;-81
2022/04/23 09:35:07;;;;;;;1.75;1.55;;;;;;;;;;5076898;28;20035;-82
2022/04/23 09:40:21;;;;;;;0.82;0.75;;;;;;;;;;5102752;28;20034;-81
2022/04/23 09:43:04;;;;;;;4.03;1.85;;;;;;;;;;5108561;28;20028;-81
2022/04/23 09:45:31;;;;;;;5.78;5.25;;;;;;;;;;5091625;28;20028;-81
2022/04/23 09:48:06;;;;;;;3.28;1.23;;;;;;;;;;5085337;28;20055;-81
2022/04/23 09:50:40;;;;;;;0.60;0.13;;;;;;;;;;5101681;28;20028;-81
2022/04/23 09:53:13;;;;;;;0.00;0.00;;;;;;;;;;5092393;28;20024;-81
2022/04/23 09:55:50;;;;;;;2.92;1.02;;;;;;;;;;5092754;28;20070;-81
2022/04/23 09:58:16;;;;;;;0.70;0.30;;;;;;;;;;5107693;28;20024;-83
2022/04/23 10:00:44;;;;;;;0.00;0.00;;;;;;;;;;5107176;28;20478;-81
2022/04/23 10:03:11;;;;;;;0.45;0.45;;;;;;;;;;5088712;28;20028;-81
2022/04/23 10:05:39;;;;;;;0.70;0.55;;;;;;;;;;5084957;28;20035;-81
2022/04/23 10:08:11;;;;;;;1.55;1.45;;;;;;;;;;5104166;28;20343;-81
2022/04/23 10:10:42;;;;;;;0.95;0.95;;;;;;;;;;5105357;28;20043;-82
2022/04/23 10:13:10;;;;;;;0.55;0.43;;;;;;;;;;5084630;28;20111;-82
2022/04/23 10:16:10;;;;;;;0.93;0.90;;;;;;;;;;5102553;28;20395;-82
2022/04/23 10:18:55;;;;;;;4.13;0.60;;;;;;;;;;5074932;28;20095;-81
2022/04/23 10:21:44;;;;;;;0.45;0.45;;;;;;;;;;5103345;28;20482;-80
2022/04/23 10:24:15;;;;;;;0.57;0.40;;;;;;;;;;5101984;28;20564;-80
2022/04/23 10:26:49;;;;;;;0.08;0.08;;;;;;;;;;5107087;28;20027;-81
2022/04/23 10:29:20;;;;;;;5.20;1.48;;;;;;;;;;5083065;28;20030;-80
2022/04/23 10:32:06;;;;;;;0.35;0.17;;;;;;;;;;5104176;28;20086;-83
2022/04/23 10:34:33;;;;;;;9.77;3.88;;;;;;;;;;5106274;28;20020;-81
2022/04/23 10:37:21;;;;;;;0.55;0.30;;;;;;;;;;5102008;28;20020;-80
2022/04/23 10:39:53;;;;;;;0.00;0.00;;;;;;;;;;5085083;28;20106;-81
2022/04/23 10:42:21;;;;;;;0.22;0.22;;;;;;;;;;5107130;28;20060;-81
2022/04/23 10:44:48;;;;;;;3.63;2.00;;;;;;;;;;5090065;28;20028;-82
2022/04/23 10:47:32;;;;;;;0.05;0.05;;;;;;;;;;5105435;28;20020;-81
2022/04/23 10:50:27;;;;;;;0.00;0.00;;;;;;;;;;5104045;28;20024;-81
2022/04/23 10:52:55;;;;;;;0.70;0.35;;;;;;;;;;5072388;28;20046;-81
2022/04/23 10:55:22;;;;;;;0.00;0.00;;;;;;;;;;5104161;28;20020;-81
2022/04/23 10:57:54;;;;;;;1.08;0.40;;;;;;;;;;5106061;28;20471;-82
2022/04/23 11:00:22;;;;;;;0.10;0.05;;;;;;;;;;5085958;28;20039;-81
2022/04/23 11:02:49;;;;;;;4.45;4.25;;;;;;;;;;5093459;28;20106;-83
2022/04/23 11:13:53;;;;;;;1.52;1.45;;;;;;;;;;5100537;28;20066;-82
2022/04/23 11:16:21;;;;;;;12.95;1.73;;;;;;;;;;5104646;28;20081;-81
2022/04/23 11:18:50;;;;;;;2.30;1.08;;;;;;;;;;5083422;28;20035;-81
2022/04/23 11:21:29;;;;;;;0.32;0.32;;;;;;;;;;5104758;28;20048;-81
2022/04/23 11:23:56;;;;;;;0.88;0.88;;;;;;;;;;5100671;28;20035;-81
2022/04/23 11:26:39;;;;;;;0.00;0.00;;;;;;;;;;5084499;28;20027;-81
2022/04/23 11:29:05;;;;;;;0.22;0.20;;;;;;;;;;5106574;28;20024;-81
2022/04/23 11:31:32;;;;;;;0.00;0.00;;;;;;;;;;5102163;28;20111;-82
2022/04/23 11:34:02;;;;;;;0.00;0.00;;;;;;;;;;5106614;28;20020;-82
2022/04/23 11:36:32;;;;;;;0.00;0.00;;;;;;;;;;5111536;28;20028;-82
2022/04/23 11:38:59;;;;;;;0.00;0.00;;;;;;;;;;5108475;28;20024;-80
2022/04/23 11:41:27;;;;;;;0.00;0.00;;;;;;;;;;5109758;28;20024;-82
2022/04/23 11:43:55;;;;;;;0.35;0.35;;;;;;;;;;5082087;28;20421;-83
2022/04/23 11:46:34;;;;;;;;;;;;;;;;;;;;;
2022/04/23 11:52:37;;;;;;;0.00;0.00;;;;;;;;;;5081719;28;20042;-80
2022/04/23 11:55:08;;;;;;;0.00;0.00;;;;;;;;;;5040200;28;20042;-80
2022/04/23 11:57:37;;;;;;;0.00;0.00;;;;;;;;;;5084176;28;20028;-79
2022/04/23 12:00:04;;;;;;;0.85;0.50;;;;;;;;;;5102338;28;20016;-83
2022/04/23 12:02:36;;;;;;;0.10;0.10;;;;;;;;;;5081833;28;20027;-83
2022/04/23 12:05:09;;;;;;;0.00;0.00;;;;;;;;;;5082111;28;20039;-84
2022/04/23 12:10:31;;;;;;;1.90;0.63;;;;;;;;;;5082862;28;20050;-80
2022/04/23 12:13:05;;;;;;;0.00;0.00;;;;;;;;;;5080984;28;20052;-82
2022/04/23 12:15:36;;;;;;;0.57;0.57;;;;;;;;;;5085149;28;20292;-81
2022/04/23 12:18:14;;;;;;;0.00;0.00;;;;;;;;;;5083199;28;20028;-85
2022/04/23 12:20:50;;;;;;;0.00;0.00;;;;;;;;;;5087525;28;20031;-82
2022/04/23 12:23:19;;;;;;;0.00;0.00;;;;;;;;;;5099339;28;20023;-81
2022/04/23 12:25:53;;;;;;;0.30;0.30;;;;;;;;;;5079574;28;20038;-82
2022/04/23 12:43:06;;;;;;;0.22;0.20;;;;;;;;;;5102532;28;20655;-82
2022/04/23 12:45:53;;;;;;;0.00;0.00;;;;;;;;;;5100158;28;20031;-79
2022/04/23 12:51:12;;;;;;;0.13;0.13;;;;;;;;;;5101957;28;20361;-79
2022/04/23 12:53:39;;;;;;;0.03;0.03;;;;;;;;;;5089990;28;20027;-80
2022/04/23 12:56:13;;;;;;;0.00;0.00;;;;;;;;;;5077566;28;20020;-80
2022/04/23 12:58:39;;;;;;;0.00;0.00;;;;;;;;;;5092469;28;20111;-82
2022/04/23 13:01:17;;;;;;;0.00;0.00;;;;;;;;;;5102562;28;20020;-79
2022/04/23 13:09:35;;;;;;;0.00;0.00;;;;;;;;;;5102960;28;20616;-79
2022/04/23 13:12:11;;;;;;;0.00;0.00;;;;;;;;;;5083536;28;20466;-82
2022/04/23 13:17:35;;;;;;;0.00;0.00;;;;;;;;;;5101357;28;20047;-80
2022/04/23 13:20:02;;;;;;;0.00;0.00;;;;;;;;;;5119104;28;20026;-80
2022/04/23 13:22:41;;;;;;;0.00;0.00;;;;;;;;;;5108233;28;20028;-80
2022/04/23 13:25:11;;;;;;;0.00;0.00;;;;;;;;;;5109188;28;20461;-81
2022/04/23 13:27:39;;;;;;;0.00;0.00;;;;;;;;;;5104972;28;20351;-80
2022/04/23 13:30:09;;;;;;;0.00;0.00;;;;;;;;;;5102980;28;20044;-81
2022/04/23 13:32:38;;;;;;;0.00;0.00;;;;;;;;;;5089131;28;20034;-78
2022/04/23 13:35:07;;;;;;;0.00;0.00;;;;;;;;;;5078374;28;20036;-78
2022/04/23 13:38:16;;;;;;;;;;;;;;;;;;;;;
2022/04/23 13:40:55;;;;;;;0.00;0.00;;;;;;;;;;5083608;28;20053;-78
2022/04/23 13:46:46;;;;;;;;;;;;;;;;;;;;;
2022/04/23 13:49:26;;;;;;;0.03;0.03;;;;;;;;;;5110349;28;20039;-78
2022/04/23 13:51:59;;;;;;;0.00;0.00;;;;;;;;;;5087268;28;20036;-78
2022/04/23 13:54:49;;;;;;;0.00;0.00;;;;;;;;;;5099119;28;20074;-79
2022/04/23 13:57:16;;;;;;;0.00;0.00;;;;;;;;;;5088492;28;20020;-79
2022/04/23 13:59:42;;;;;;;0.00;0.00;;;;;;;;;;5092087;28;20027;-81
2022/04/23 14:10:46;;;;;;;0.00;0.00;;;;;;;;;;5112051;28;20031;-78
2022/04/23 14:13:12;;;;;;;0.00;0.00;;;;;;;;;;5113112;28;20024;-78
2022/04/23 14:15:38;;;;;;;0.00;0.00;;;;;;;;;;5093408;28;20039;-76
2022/04/23 14:18:14;;;;;;;0.00;0.00;;;;;;;;;;5088755;28;20063;-78
2022/04/23 14:20:43;;;;;;;0.00;0.00;;;;;;;;;;5086103;28;20085;-82
2022/04/23 14:23:10;;;;;;;0.00;0.00;;;;;;;;;;5107160;28;20027;-77
2022/04/23 14:28:26;;;;;;;0.00;0.00;;;;;;;;;;5076922;28;20040;-79
2022/04/23 14:30:52;;;;;;;0.00;0.00;;;;;;;;;;5083652;28;20024;-79
2022/04/23 14:39:36;;;;;;;0.00;0.00;;;;;;;;;;5025444;28;20105;-81
2022/04/23 14:42:05;;;;;;;0.22;0.22;;;;;;;;;;5074148;28;20032;-80
2022/04/23 14:44:39;;;;;;;0.30;0.30;;;;;;;;;;5084913;28;20081;-80
2022/04/23 14:47:10;;;;;;;0.00;0.00;;;;;;;;;;5086120;28;20427;-79
2022/04/23 14:49:39;;;;;;;0.00;0.00;;;;;;;;;;5087145;28;20427;-80
2022/04/23 14:55:27;;;;;;;0.20;0.20;;;;;;;;;;5105631;28;20066;-76
2022/04/23 14:57:59;;;;;;;0.00;0.00;;;;;;;;;;5024126;28;20048;-77
2022/04/23 15:00:31;;;;;;;0.00;0.00;;;;;;;;;;5097001;28;20039;-77
2022/04/23 15:03:18;;;;;;;0.00;0.00;;;;;;;;;;5109507;28;20032;-78
2022/04/23 15:05:50;;;;;;;0.00;0.00;;;;;;;;;;5085073;28;20382;-78
2022/04/23 15:08:19;;;;;;;0.30;0.30;;;;;;;;;;5093654;28;20039;-79
2022/04/23 15:10:52;;;;;;;0.00;0.00;;;;;;;;;;5093022;28;20039;-81
2022/04/23 15:16:44;;;;;;;0.10;0.10;;;;;;;;;;5082766;28;20036;-78
2022/04/23 15:19:22;;;;;;;0.00;0.00;;;;;;;;;;5109896;28;20374;-79
2022/04/23 15:21:52;;;;;;;0.00;0.00;;;;;;;;;;5078132;28;20032;-79
2022/04/23 15:24:18;;;;;;;0.00;0.00;;;;;;;;;;5106673;28;20024;-78
2022/04/23 15:26:44;;;;;;;8.23;7.68;;;;;;;;;;5097374;28;20099;-79
2022/04/23 15:29:16;;;;;;;0.00;0.00;;;;;;;;;;5076352;28;20024;-80
2022/04/23 15:31:42;;;;;;;0.00;0.00;;;;;;;;;;5079916;28;20089;-79
2022/04/23 15:34:09;;;;;;;0.00;0.00;;;;;;;;;;5089375;28;20460;-80
2022/04/23 15:36:41;;;;;;;0.00;0.00;;;;;;;;;;5101120;28;20024;-80
2022/04/23 15:39:10;;;;;;;0.00;0.00;;;;;;;;;;5102188;28;20053;-79
2022/04/23 15:41:36;;;;;;;0.00;0.00;;;;;;;;;;5090774;28;20085;-79
2022/04/23 15:44:02;;;;;;;0.00;0.00;;;;;;;;;;5086450;28;20020;-80
2022/04/23 15:46:29;;;;;;;0.10;0.10;;;;;;;;;;5094940;28;20024;-81
2022/04/23 15:48:58;;;;;;;0.00;0.00;;;;;;;;;;5102671;28;20028;-80
2022/04/23 15:51:25;;;;;;;0.00;0.00;;;;;;;;;;5111608;28;20043;-81
2022/04/23 15:53:57;;;;;;;0.00;0.00;;;;;;;;;;5111708;28;20016;-83
2022/04/23 15:56:27;;;;;;;0.00;0.00;;;;;;;;;;5112028;28;20107;-81
2022/04/23 15:58:53;;;;;;;2.22;2.13;;;;;;;;;;5113480;28;20019;-79
2022/04/23 16:01:19;;;;;;;0.00;0.00;;;;;;;;;;5099002;28;20039;-79
2022/04/23 16:03:46;;;;;;;0.00;0.00;;;;;;;;;;5103384;28;20039;-78
2022/04/23 16:06:12;;;;;;;0.00;0.00;;;;;;;;;;5115506;28;20106;-80
2022/04/23 16:08:39;;;;;;;0.00;0.00;;;;;;;;;;5121904;28;20028;-79
2022/04/23 16:11:19;;;;;;;0.00;0.00;;;;;;;;;;5130568;28;20035;-80
2022/04/23 16:13:48;;;;;;;0.00;0.00;;;;;;;;;;5098414;28;20043;-80
2022/04/23 16:16:15;;;;;;;0.00;0.00;;;;;;;;;;5109501;28;20035;-80
2022/04/23 16:18:41;;;;;;;0.00;0.00;;;;;;;;;;5087112;28;20072;-80
2022/04/23 16:21:08;;;;;;;0.35;0.35;;;;;;;;;;5110011;28;20153;-79
2022/04/23 16:23:35;;;;;;;0.00;0.00;;;;;;;;;;5106716;28;20466;-80
2022/04/23 16:26:02;;;;;;;0.00;0.00;;;;;;;;;;5088617;28;20071;-80